Time;durP1;ratioP1;P1;durP2;ratioP2;P2;SDS_P1;SDS_P2;PMS_P1;PMS_P2;Temp;Humidity;BMP_temperature;BMP_pressure;BME280_temperature;BME280_humidity;BME280_pressure;Samples;Min_cycle;Max_cycle;Signal;HPM_P1;HPM_P2
2022/01/17 00:00:57;;;;;;;14.77;8.15;;;17.40;44.00;;;;;;5077935;28;20197;-69
2022/01/17 00:03:26;;;;;;;12.65;7.72;;;17.40;44.50;;;;;;5095796;28;20716;-69
2022/01/17 00:05:53;;;;;;;15.45;8.52;;;17.40;44.50;;;;;;5077852;28;20201;-67
2022/01/17 00:08:21;;;;;;;12.52;7.70;;;17.30;44.50;;;;;;5077841;28;20807;-67
2022/01/17 00:10:48;;;;;;;13.85;8.05;;;17.30;44.90;;;;;;5078100;28;20666;-69
2022/01/17 00:13:23;;;;;;;14.93;7.57;;;17.30;44.50;;;;;;5077741;28;20241;-69
2022/01/17 00:15:55;;;;;;;11.15;7.55;;;17.20;44.50;;;;;;5095746;28;20178;-67
2022/01/17 00:18:29;;;;;;;13.82;7.70;;;17.20;44.70;;;;;;5094916;28;20237;-67
2022/01/17 00:20:58;;;;;;;12.82;7.93;;;17.20;44.50;;;;;;5095906;28;20181;-67
2022/01/17 00:23:25;;;;;;;12.75;8.05;;;17.10;44.50;;;;;;5077197;28;20217;-66
2022/01/17 00:25:52;;;;;;;10.63;6.70;;;17.20;44.70;;;;;;5077312;28;20197;-68
2022/01/17 00:28:19;;;;;;;12.63;7.15;;;17.10;44.50;;;;;;5077011;28;20224;-67
2022/01/17 00:30:46;;;;;;;11.05;7.40;;;17.10;44.30;;;;;;5095711;28;20251;-65
2022/01/17 00:33:13;;;;;;;12.57;7.38;;;17.10;44.50;;;;;;5095153;28;20183;-68
2022/01/17 00:35:40;;;;;;;10.82;6.85;;;17.10;44.20;;;;;;5076723;28;20285;-68
2022/01/17 00:38:11;;;;;;;8.90;6.40;;;17.10;44.30;;;;;;5076677;28;20774;-66
2022/01/17 00:40:38;;;;;;;10.60;6.97;;;17.10;44.40;;;;;;5076574;28;20257;-65
2022/01/17 00:43:05;;;;;;;10.95;7.43;;;17.00;47.10;;;;;;5094772;28;20190;-67
2022/01/17 00:45:32;;;;;;;10.77;7.00;;;17.10;47.80;;;;;;5076670;28;20666;-68
2022/01/17 00:48:00;;;;;;;10.13;6.90;;;17.00;47.50;;;;;;5076605;28;20305;-67
2022/01/17 00:50:28;;;;;;;10.70;7.03;;;17.00;47.50;;;;;;5076063;28;20287;-66
2022/01/17 00:52:55;;;;;;;8.52;6.55;;;17.00;46.90;;;;;;5076321;28;20712;-66
2022/01/17 00:55:24;;;;;;;9.15;7.15;;;17.00;47.10;;;;;;5094650;28;20359;-67
2022/01/17 00:57:51;;;;;;;11.05;6.95;;;17.00;46.90;;;;;;5076259;28;20194;-68
2022/01/17 01:00:18;;;;;;;10.73;6.60;;;17.00;46.70;;;;;;5076531;28;20190;-65
2022/01/17 01:02:46;;;;;;;10.30;6.95;;;17.00;46.50;;;;;;5076162;28;20247;-68
2022/01/17 01:05:13;;;;;;;10.48;6.75;;;17.00;46.30;;;;;;5094400;28;20263;-68
2022/01/17 01:07:41;;;;;;;8.35;6.43;;;16.90;46.40;;;;;;5076147;28;20298;-67
2022/01/17 01:10:10;;;;;;;9.13;6.60;;;16.90;46.20;;;;;;5076436;28;20568;-67
2022/01/17 01:12:39;;;;;;;9.05;6.28;;;16.90;46.00;;;;;;5076472;28;20221;-66
2022/01/17 01:15:11;;;;;;;8.93;5.97;;;16.90;45.90;;;;;;5094382;28;20556;-68
2022/01/17 01:17:48;;;;;;;9.65;6.50;;;16.90;45.90;;;;;;5076102;28;20657;-66
2022/01/17 01:20:24;;;;;;;8.43;5.82;;;16.90;45.90;;;;;;5076146;28;20212;-67
2022/01/17 01:28:22;;;;;;;7.38;6.10;;;16.80;45.60;;;;;;5080189;28;20317;-68
2022/01/17 01:30:53;;;;;;;8.63;6.22;;;16.80;45.40;;;;;;5079630;28;20226;-66
2022/01/17 01:33:26;;;;;;;9.43;6.40;;;16.80;45.70;;;;;;5079351;28;20569;-65
2022/01/17 01:36:00;;;;;;;8.07;6.18;;;16.80;45.60;;;;;;5078063;28;20209;-68
2022/01/17 01:38:27;;;;;;;6.40;5.70;;;16.80;45.60;;;;;;5075683;28;20252;-68
2022/01/17 01:40:54;;;;;;;7.72;5.72;;;16.70;45.40;;;;;;5076043;28;20292;-67
2022/01/17 01:43:23;;;;;;;6.97;5.68;;;16.70;45.40;;;;;;5075400;28;20673;-65
2022/01/17 01:45:50;;;;;;;7.25;5.72;;;16.70;45.40;;;;;;5077049;28;20253;-66
2022/01/17 01:48:19;;;;;;;7.93;5.30;;;16.70;45.40;;;;;;5075681;28;20240;-68
2022/01/17 01:50:46;;;;;;;7.30;5.63;;;16.70;45.50;;;;;;5094106;28;20646;-69
2022/01/17 01:53:13;;;;;;;6.53;5.13;;;16.70;45.40;;;;;;5075848;28;20288;-65
2022/01/17 01:55:41;;;;;;;6.93;5.55;;;16.70;45.40;;;;;;5094314;28;20190;-65
2022/01/17 01:58:09;;;;;;;7.97;5.70;;;16.70;45.40;;;;;;5075347;28;20240;-68
2022/01/17 02:00:37;;;;;;;6.88;5.00;;;16.60;45.30;;;;;;5075393;28;20204;-67
2022/01/17 02:03:05;;;;;;;6.47;5.32;;;16.60;45.30;;;;;;5075238;28;20677;-66
2022/01/17 02:05:32;;;;;;;7.78;5.15;;;16.60;45.30;;;;;;5075083;28;20246;-67
2022/01/17 02:07:59;;;;;;;7.68;5.60;;;16.60;45.30;;;;;;5093579;28;20263;-69
2022/01/17 02:10:26;;;;;;;6.10;4.90;;;16.60;45.50;;;;;;5093440;28;20273;-69
2022/01/17 02:12:53;;;;;;;7.75;5.65;;;16.60;45.40;;;;;;5093189;28;20190;-67
2022/01/17 02:15:20;;;;;;;7.20;5.30;;;16.60;45.50;;;;;;5074972;28;20544;-68
2022/01/17 02:17:54;;;;;;;7.63;5.47;;;16.50;45.20;;;;;;5075325;28;20202;-67
2022/01/17 02:20:24;;;;;;;6.05;5.05;;;16.50;45.30;;;;;;5075253;28;20267;-68
2022/01/17 02:22:52;;;;;;;6.90;4.88;;;16.50;45.50;;;;;;5093523;28;20233;-69
2022/01/17 02:25:19;;;;;;;5.85;4.70;;;16.50;46.00;;;;;;5075290;28;20355;-67
2022/01/17 02:27:46;;;;;;;8.00;5.93;;;16.50;45.30;;;;;;5075390;28;20206;-66
2022/01/17 02:30:16;;;;;;;6.93;5.18;;;16.50;45.30;;;;;;5093538;28;20222;-67
2022/01/17 02:32:43;;;;;;;5.72;5.05;;;16.40;45.20;;;;;;5093404;28;20190;-69
2022/01/17 02:35:14;;;;;;;6.72;5.10;;;16.40;45.10;;;;;;5075320;28;20569;-69
2022/01/17 02:37:43;;;;;;;5.65;4.68;;;16.40;45.00;;;;;;5075232;28;20197;-68
2022/01/17 02:40:12;;;;;;;7.55;5.63;;;16.40;45.00;;;;;;5074741;28;20206;-66
2022/01/17 02:42:39;;;;;;;6.70;5.05;;;16.40;44.80;;;;;;5075626;28;20217;-66
2022/01/17 02:45:12;;;;;;;6.85;5.07;;;16.40;44.70;;;;;;5075617;28;20274;-66
2022/01/17 02:47:40;;;;;;;7.45;5.20;;;16.40;44.70;;;;;;5076325;28;20193;-65
2022/01/17 02:50:07;;;;;;;5.55;4.90;;;16.40;44.60;;;;;;5075397;28;20193;-68
2022/01/17 02:52:34;;;;;;;5.82;4.60;;;16.40;44.70;;;;;;5075689;28;20198;-69
2022/01/17 02:55:03;;;;;;;5.65;5.00;;;16.40;44.50;;;;;;5075424;28;20196;-66
2022/01/17 02:57:32;;;;;;;7.00;5.00;;;16.40;44.40;;;;;;5076579;28;20276;-65
2022/01/17 02:59:59;;;;;;;6.25;4.88;;;16.40;44.60;;;;;;5075337;28;20721;-67
2022/01/17 03:02:26;;;;;;;5.95;4.57;;;16.40;44.50;;;;;;5074957;28;20654;-69
2022/01/17 03:04:53;;;;;;;5.75;4.75;;;16.40;44.40;;;;;;5092978;28;20218;-67
2022/01/17 03:07:20;;;;;;;7.53;4.80;;;16.40;44.50;;;;;;5074862;28;20293;-67
2022/01/17 03:10:01;;;;;;;6.00;5.18;;;16.40;44.40;;;;;;5075198;28;20224;-69
2022/01/17 03:12:30;;;;;;;7.95;5.25;;;16.30;44.40;;;;;;5074982;28;20280;-67
2022/01/17 03:14:57;;;;;;;5.20;4.60;;;16.30;44.40;;;;;;5092569;28;20261;-69
2022/01/17 03:17:24;;;;;;;6.25;4.88;;;16.30;44.40;;;;;;5074892;28;20296;-66
2022/01/17 03:19:51;;;;;;;6.43;5.20;;;16.30;44.30;;;;;;5074453;28;20301;-66
2022/01/17 03:22:18;;;;;;;7.15;4.75;;;16.30;44.30;;;;;;5074974;28;20288;-67
2022/01/17 03:24:45;;;;;;;5.30;4.78;;;16.30;44.30;;;;;;5092356;28;20209;-67
2022/01/17 03:27:12;;;;;;;5.97;4.95;;;16.30;44.30;;;;;;5075404;28;20209;-66
2022/01/17 03:29:40;;;;;;;5.70;5.20;;;16.30;44.40;;;;;;5074977;28;20249;-69
2022/01/17 03:32:08;;;;;;;6.28;5.20;;;16.30;44.50;;;;;;5074804;28;20677;-67
2022/01/17 03:34:36;;;;;;;6.20;5.25;;;16.30;44.50;;;;;;5074556;28;20611;-66
2022/01/17 03:37:04;;;;;;;6.22;4.97;;;16.30;44.50;;;;;;5074233;28;20197;-66
2022/01/17 03:39:31;;;;;;;5.60;4.85;;;16.30;44.60;;;;;;5092126;28;20263;-69
2022/01/17 03:41:58;;;;;;;5.97;5.38;;;16.20;44.50;;;;;;5074395;28;20194;-67
2022/01/17 03:44:25;;;;;;;5.70;5.10;;;16.20;44.60;;;;;;5092596;28;20204;-64
2022/01/17 03:46:54;;;;;;;5.45;4.80;;;16.20;44.50;;;;;;5074129;28;20563;-66
2022/01/17 03:49:21;;;;;;;5.90;4.90;;;16.20;44.60;;;;;;5074378;28;20226;-68
2022/01/17 03:51:48;;;;;;;5.45;4.95;;;16.20;45.20;;;;;;5075453;28;20565;-69
2022/01/17 03:54:16;;;;;;;5.38;4.88;;;16.20;44.60;;;;;;5095675;28;20190;-66
2022/01/17 03:56:43;;;;;;;6.07;5.35;;;16.20;44.60;;;;;;5077444;28;20194;-68
2022/01/17 03:59:11;;;;;;;6.05;4.97;;;16.20;44.60;;;;;;5077519;28;20719;-67
2022/01/17 04:01:38;;;;;;;5.72;5.13;;;16.10;44.50;;;;;;5077777;28;20197;-66
2022/01/17 04:04:08;;;;;;;4.88;4.30;;;16.20;44.60;;;;;;5077475;28;20565;-65
2022/01/17 04:06:35;;;;;;;5.93;5.32;;;16.20;44.80;;;;;;5077563;28;20254;-66
2022/01/17 04:09:02;;;;;;;5.32;4.82;;;16.20;44.90;;;;;;5095670;28;20216;-68
2022/01/17 04:11:29;;;;;;;5.18;4.63;;;16.20;45.00;;;;;;5077499;28;20194;-67
2022/01/17 04:13:56;;;;;;;5.53;5.00;;;16.20;45.00;;;;;;5077466;28;20198;-67
2022/01/17 04:16:24;;;;;;;5.88;4.97;;;16.20;45.00;;;;;;5077443;28;20194;-66
2022/01/17 04:18:52;;;;;;;5.10;4.70;;;16.10;44.70;;;;;;5077455;28;20210;-67
2022/01/17 04:21:21;;;;;;;5.45;4.95;;;16.10;44.70;;;;;;5077413;28;20221;-66
2022/01/17 04:23:48;;;;;;;5.28;4.78;;;16.20;44.70;;;;;;5077168;28;20185;-67
2022/01/17 04:26:15;;;;;;;6.13;5.53;;;16.20;44.60;;;;;;5077327;28;20217;-68
2022/01/17 04:28:42;;;;;;;6.25;5.15;;;16.20;44.50;;;;;;5077551;28;20222;-69
2022/01/17 04:31:09;;;;;;;5.75;4.93;;;16.20;44.50;;;;;;5077165;28;20198;-65
2022/01/17 04:33:36;;;;;;;5.18;4.68;;;16.20;44.30;;;;;;5077103;28;20332;-66
2022/01/17 04:36:06;;;;;;;5.80;5.22;;;16.30;44.90;;;;;;5077058;28;20626;-69
2022/01/17 04:38:35;;;;;;;5.28;4.78;;;16.30;44.10;;;;;;5076871;28;20254;-68
2022/01/17 04:41:05;;;;;;;5.32;4.82;;;16.30;44.70;;;;;;5076890;28;20567;-66
2022/01/17 04:43:56;;;;;;;5.60;5.10;;;16.30;44.00;;;;;;5077177;28;20216;-67
2022/01/17 04:46:23;;;;;;;5.20;4.70;;;16.40;44.10;;;;;;5077345;28;20591;-66
2022/01/17 04:48:50;;;;;;;5.50;4.80;;;16.40;44.00;;;;;;5095097;28;20206;-69
2022/01/17 04:51:17;;;;;;;4.90;4.40;;;16.40;44.00;;;;;;5095024;28;20201;-68
2022/01/17 04:54:02;;;;;;;5.28;4.75;;;16.50;44.60;;;;;;5076593;28;20544;-67
2022/01/17 04:56:29;;;;;;;5.18;4.63;;;16.50;43.90;;;;;;5076955;28;20186;-66
2022/01/17 04:58:56;;;;;;;5.10;4.60;;;16.50;43.90;;;;;;5076440;28;20218;-66
2022/01/17 05:01:24;;;;;;;5.00;4.60;;;16.50;43.90;;;;;;5094580;28;20269;-69
2022/01/17 05:03:51;;;;;;;5.18;4.68;;;16.50;43.70;;;;;;5076198;28;20190;-67
2022/01/17 05:06:18;;;;;;;5.55;5.05;;;16.50;43.70;;;;;;5076314;28;20224;-66
2022/01/17 05:08:46;;;;;;;5.13;4.53;;;16.50;43.50;;;;;;5076043;28;20549;-65
2022/01/17 05:11:13;;;;;;;4.88;4.35;;;16.50;43.50;;;;;;5094122;28;20658;-68
2022/01/17 05:13:46;;;;;;;5.57;4.90;;;16.60;43.40;;;;;;5076195;28;20198;-66
2022/01/17 05:16:15;;;;;;;5.35;4.45;;;16.50;43.60;;;;;;5094099;28;20572;-66
2022/01/17 05:21:26;;;;;;;4.85;4.35;;;16.60;43.10;;;;;;5076078;28;20194;-67
2022/01/17 05:23:55;;;;;;;6.25;5.05;;;16.70;43.40;;;;;;5075781;28;20289;-66
2022/01/17 05:26:22;;;;;;;4.90;4.40;;;16.70;43.90;;;;;;5094301;28;20214;-64
2022/01/17 05:28:49;;;;;;;5.47;4.93;;;16.70;43.70;;;;;;5075591;28;20723;-66
2022/01/17 05:31:16;;;;;;;5.25;4.50;;;16.70;43.20;;;;;;5075469;28;20252;-68
2022/01/17 05:33:43;;;;;;;5.25;4.75;;;16.80;43.20;;;;;;5093983;28;20608;-65
2022/01/17 05:36:10;;;;;;;5.20;4.70;;;16.80;43.40;;;;;;5075737;28;20229;-66
2022/01/17 05:38:37;;;;;;;4.82;4.43;;;16.70;43.30;;;;;;5075338;28;20214;-68
2022/01/17 05:41:05;;;;;;;5.70;4.47;;;16.80;43.90;;;;;;5093743;28;20654;-66
2022/01/17 05:43:33;;;;;;;5.82;5.18;;;16.80;43.40;;;;;;5075556;28;20193;-64
2022/01/17 05:46:00;;;;;;;5.80;4.68;;;16.90;43.40;;;;;;5075101;28;20716;-65
2022/01/17 05:48:27;;;;;;;5.15;4.65;;;16.90;43.90;;;;;;5075317;28;20285;-68
2022/01/17 05:50:54;;;;;;;5.05;4.30;;;16.90;43.30;;;;;;5075331;28;20194;-64
2022/01/17 05:53:21;;;;;;;4.72;4.32;;;16.90;43.20;;;;;;5075372;28;20194;-65
2022/01/17 05:55:48;;;;;;;5.30;4.80;;;17.00;43.10;;;;;;5075373;28;20190;-67
2022/01/17 05:58:16;;;;;;;6.50;4.82;;;17.00;43.10;;;;;;5093696;28;20580;-66
2022/01/17 06:00:43;;;;;;;6.35;4.82;;;17.00;42.60;;;;;;5093666;28;20186;-64
2022/01/17 06:03:11;;;;;;;5.03;4.20;;;17.00;42.30;;;;;;5094024;28;20528;-68
2022/01/17 06:05:38;;;;;;;5.30;4.80;;;17.00;43.00;;;;;;5093427;28;20220;-68
2022/01/17 06:08:05;;;;;;;5.95;4.63;;;17.10;42.60;;;;;;5075063;28;20232;-65
2022/01/17 06:10:33;;;;;;;5.00;4.50;;;17.10;42.60;;;;;;5075062;28;20190;-66
2022/01/17 06:13:01;;;;;;;5.00;4.28;;;17.10;42.60;;;;;;5075123;28;20202;-66
2022/01/17 06:15:29;;;;;;;4.60;4.20;;;17.10;42.40;;;;;;5074069;28;20194;-68
2022/01/17 06:17:56;;;;;;;4.72;4.32;;;17.10;42.70;;;;;;5093131;28;20298;-66
2022/01/17 06:20:23;;;;;;;4.40;4.00;;;17.10;42.50;;;;;;5074953;28;20202;-68
2022/01/17 06:22:50;;;;;;;5.13;4.63;;;17.10;42.50;;;;;;5075048;28;20607;-68
2022/01/17 06:25:17;;;;;;;4.55;4.15;;;17.10;42.60;;;;;;5074959;28;20229;-67
2022/01/17 06:27:44;;;;;;;4.72;4.32;;;17.10;42.50;;;;;;5074898;28;20208;-68
2022/01/17 06:30:13;;;;;;;4.35;3.95;;;17.10;42.50;;;;;;5074876;28;20285;-68
2022/01/17 06:32:41;;;;;;;4.30;3.90;;;17.10;42.60;;;;;;5075449;28;20230;-68
2022/01/17 06:35:10;;;;;;;4.25;3.85;;;17.10;42.50;;;;;;5074517;28;20700;-68
2022/01/17 06:37:38;;;;;;;5.03;4.10;;;17.10;42.50;;;;;;5074533;28;20229;-67
2022/01/17 06:40:07;;;;;;;4.18;3.80;;;17.10;42.50;;;;;;5074384;28;20204;-66
2022/01/17 06:42:34;;;;;;;4.53;3.90;;;17.10;42.50;;;;;;5092500;28;20186;-67
2022/01/17 06:45:04;;;;;;;4.32;3.92;;;17.10;42.40;;;;;;5092592;28;20194;-69
2022/01/17 06:47:31;;;;;;;4.15;3.75;;;17.10;42.50;;;;;;5074577;28;20251;-67
2022/01/17 06:49:59;;;;;;;4.43;4.03;;;17.10;42.40;;;;;;5074593;28;20210;-67
2022/01/17 06:52:26;;;;;;;4.60;4.20;;;17.10;42.20;;;;;;5075175;28;20220;-67
2022/01/17 06:54:53;;;;;;;5.68;4.25;;;17.10;42.00;;;;;;5074529;28;20200;-68
2022/01/17 06:57:22;;;;;;;4.05;3.70;;;17.10;42.10;;;;;;5074669;28;20561;-68
2022/01/17 06:59:49;;;;;;;3.83;3.53;;;17.10;42.00;;;;;;5074614;28;20221;-66
2022/01/17 07:02:16;;;;;;;4.10;3.80;;;17.20;42.10;;;;;;5092720;28;20292;-65
2022/01/17 07:04:43;;;;;;;4.28;3.97;;;17.20;42.10;;;;;;5074493;28;20193;-67
2022/01/17 07:07:12;;;;;;;4.40;4.00;;;17.20;41.90;;;;;;5074528;28;20256;-66
2022/01/17 07:09:39;;;;;;;4.28;3.88;;;17.20;41.70;;;;;;5074642;28;20585;-66
2022/01/17 07:12:07;;;;;;;4.38;3.90;;;17.20;41.80;;;;;;5074616;28;20194;-69
2022/01/17 07:14:38;;;;;;;4.70;3.63;;;17.20;41.90;;;;;;5074446;28;20230;-68
2022/01/17 07:17:05;;;;;;;4.32;3.92;;;17.30;41.90;;;;;;5074368;28;20193;-68
2022/01/17 07:19:32;;;;;;;5.25;4.05;;;17.30;41.90;;;;;;5092423;28;20213;-66
2022/01/17 07:21:59;;;;;;;4.05;3.75;;;17.30;41.80;;;;;;5074665;28;20198;-66
2022/01/17 07:24:28;;;;;;;5.35;3.90;;;17.30;41.70;;;;;;5092913;28;20213;-68
2022/01/17 07:26:55;;;;;;;4.45;3.97;;;17.30;41.70;;;;;;5093859;28;20213;-68
2022/01/17 07:29:23;;;;;;;4.72;4.22;;;17.30;41.70;;;;;;5078619;28;20214;-64
2022/01/17 07:31:50;;;;;;;4.20;3.85;;;17.30;41.70;;;;;;5078682;28;20201;-67
2022/01/17 07:34:17;;;;;;;4.35;3.95;;;17.30;41.60;;;;;;5078658;28;20229;-68
2022/01/17 07:36:44;;;;;;;4.10;3.80;;;17.30;41.50;;;;;;5097656;28;20548;-67
2022/01/17 07:39:11;;;;;;;4.40;4.00;;;17.40;41.60;;;;;;5078739;28;20690;-66
2022/01/17 07:41:40;;;;;;;4.85;4.03;;;17.30;41.50;;;;;;5078438;28;20198;-68
2022/01/17 07:44:18;;;;;;;4.75;4.35;;;17.40;41.50;;;;;;5078738;28;20247;-67
2022/01/17 07:46:50;;;;;;;4.05;3.75;;;17.30;41.50;;;;;;5080545;28;20214;-67
2022/01/17 07:49:19;;;;;;;5.40;3.80;;;17.30;41.40;;;;;;5078332;28;20214;-67
2022/01/17 07:51:48;;;;;;;4.30;3.90;;;17.30;41.50;;;;;;5096576;28;20198;-66
2022/01/17 07:54:16;;;;;;;4.57;4.13;;;17.30;41.60;;;;;;5078057;28;20198;-65
2022/01/17 07:56:44;;;;;;;4.03;3.70;;;17.30;41.60;;;;;;5077866;28;20708;-67
2022/01/17 07:59:12;;;;;;;4.43;3.95;;;17.30;41.50;;;;;;5077776;28;20218;-69
2022/01/17 08:01:39;;;;;;;4.40;4.00;;;17.30;41.40;;;;;;5077650;28;20194;-67
2022/01/17 08:04:07;;;;;;;4.43;3.80;;;17.30;41.50;;;;;;5077800;28;20205;-66
2022/01/17 08:06:38;;;;;;;4.20;3.80;;;17.30;41.60;;;;;;5077624;28;20222;-65
2022/01/17 08:09:06;;;;;;;4.38;3.88;;;17.40;41.60;;;;;;5077802;28;20276;-66
2022/01/17 08:11:33;;;;;;;4.20;3.80;;;17.40;41.50;;;;;;5077613;28;20195;-69
2022/01/17 08:14:01;;;;;;;4.10;3.80;;;17.40;41.40;;;;;;5095502;28;20190;-66
2022/01/17 08:16:28;;;;;;;3.65;3.35;;;17.40;41.50;;;;;;5077357;28;20225;-65
2022/01/17 08:18:55;;;;;;;3.78;3.47;;;17.40;41.50;;;;;;5077136;28;20363;-66
2022/01/17 08:21:23;;;;;;;4.28;3.88;;;17.40;41.50;;;;;;5095295;28;20565;-68
2022/01/17 08:23:49;;;;;;;4.10;3.80;;;17.40;41.50;;;;;;5077124;28;20198;-66
2022/01/17 08:26:17;;;;;;;3.80;3.47;;;17.40;41.40;;;;;;5077237;28;20780;-66
2022/01/17 08:28:44;;;;;;;4.70;4.18;;;17.40;41.40;;;;;;5077010;28;20666;-67
2022/01/17 08:31:13;;;;;;;4.35;3.95;;;17.50;41.40;;;;;;5076966;28;20681;-68
2022/01/17 08:33:40;;;;;;;3.53;3.22;;;17.40;41.40;;;;;;5095154;28;20222;-65
2022/01/17 08:36:08;;;;;;;3.72;3.42;;;17.50;41.50;;;;;;5076922;28;20202;-66
2022/01/17 08:38:35;;;;;;;3.70;3.40;;;17.50;41.50;;;;;;5075755;28;20302;-68
2022/01/17 08:41:02;;;;;;;3.60;3.30;;;17.50;41.40;;;;;;5076743;28;20723;-67
2022/01/17 08:43:30;;;;;;;3.95;3.17;;;17.50;41.40;;;;;;5094816;28;20361;-65
2022/01/17 08:45:57;;;;;;;3.35;2.90;;;17.50;41.20;;;;;;5095034;28;20217;-66
2022/01/17 08:48:26;;;;;;;3.13;2.83;;;17.60;41.20;;;;;;5076414;28;20216;-67
2022/01/17 08:50:53;;;;;;;3.60;3.30;;;17.60;41.20;;;;;;5076687;28;20655;-66
2022/01/17 08:53:21;;;;;;;3.30;3.08;;;17.60;41.00;;;;;;5076837;28;20677;-65
2022/01/17 08:55:48;;;;;;;3.35;3.05;;;17.60;41.00;;;;;;5076492;28;20673;-64
2022/01/17 08:58:15;;;;;;;3.35;3.05;;;17.70;40.80;;;;;;5076287;28;20210;-67
2022/01/17 09:00:42;;;;;;;3.45;3.13;;;17.70;40.80;;;;;;5094360;28;20186;-66
2022/01/17 09:03:10;;;;;;;3.40;3.10;;;17.80;40.70;;;;;;5076599;28;20194;-66
2022/01/17 09:05:38;;;;;;;3.28;2.97;;;17.80;40.60;;;;;;5076183;28;20217;-68
2022/01/17 09:08:08;;;;;;;3.67;3.38;;;17.80;40.60;;;;;;5076116;28;20274;-66
2022/01/17 09:10:35;;;;;;;3.60;3.25;;;17.90;40.60;;;;;;5076122;28;20576;-67
2022/01/17 09:13:02;;;;;;;3.00;2.80;;;17.90;40.60;;;;;;5076089;28;20198;-64
2022/01/17 09:15:30;;;;;;;3.90;3.05;;;18.00;40.50;;;;;;5094185;28;20280;-65
2022/01/17 09:17:57;;;;;;;3.45;3.08;;;18.10;40.50;;;;;;5076077;28;20263;-66
2022/01/17 09:20:24;;;;;;;3.10;2.85;;;18.10;40.40;;;;;;5076067;28;20194;-66
2022/01/17 09:22:54;;;;;;;3.05;2.85;;;18.10;40.40;;;;;;5075970;28;20208;-66
2022/01/17 09:25:21;;;;;;;3.10;2.90;;;18.10;40.30;;;;;;5093887;28;20194;-64
2022/01/17 09:27:48;;;;;;;3.17;2.88;;;18.10;40.20;;;;;;5076073;28;20328;-69
2022/01/17 09:30:15;;;;;;;3.03;2.72;;;18.20;40.10;;;;;;5075992;28;20198;-66
2022/01/17 09:32:42;;;;;;;2.97;2.78;;;18.20;40.30;;;;;;5075833;28;20195;-66
2022/01/17 09:35:11;;;;;;;3.00;2.80;;;18.20;40.30;;;;;;5075945;28;20190;-69
2022/01/17 09:37:38;;;;;;;2.75;2.55;;;18.20;40.30;;;;;;5076017;28;20534;-69
2022/01/17 09:40:08;;;;;;;3.15;2.88;;;18.20;40.30;;;;;;5075699;28;20194;-65
2022/01/17 09:42:36;;;;;;;2.70;2.50;;;18.20;40.10;;;;;;5075593;28;20197;-64
2022/01/17 09:45:08;;;;;;;3.05;2.75;;;18.20;40.30;;;;;;5075523;28;20204;-65
2022/01/17 09:47:37;;;;;;;2.95;2.75;;;18.20;40.40;;;;;;5075754;28;20561;-65
2022/01/17 09:50:06;;;;;;;3.00;2.70;;;18.10;40.10;;;;;;5075680;28;20251;-66
2022/01/17 09:52:37;;;;;;;2.90;2.70;;;18.20;40.10;;;;;;5075551;28;20198;-66
2022/01/17 09:55:10;;;;;;;3.28;2.97;;;18.10;40.10;;;;;;5075478;28;20212;-65
2022/01/17 09:57:40;;;;;;;2.88;2.67;;;18.20;39.90;;;;;;5075715;28;20194;-68
2022/01/17 10:00:08;;;;;;;3.00;2.80;;;18.20;40.00;;;;;;5075770;28;20194;-66
2022/01/17 10:02:40;;;;;;;2.90;2.70;;;18.20;40.00;;;;;;5095043;28;20189;-65
2022/01/17 10:05:08;;;;;;;2.97;2.78;;;18.20;39.90;;;;;;5096010;28;20262;-66
2022/01/17 10:08:00;;;;;;;2.80;2.60;;;18.20;39.80;;;;;;5079669;28;20221;-69
2022/01/17 10:10:40;;;;;;;2.90;2.70;;;18.30;40.10;;;;;;5091546;28;20233;-68
2022/01/17 10:13:08;;;;;;;2.92;2.72;;;18.30;39.90;;;;;;5075865;28;20189;-68
2022/01/17 10:15:45;;;;;;;2.88;2.67;;;18.30;39.90;;;;;;5075605;28;20194;-65
2022/01/17 10:18:26;;;;;;;2.78;2.58;;;18.30;39.90;;;;;;5075927;28;20585;-67
2022/01/17 10:20:57;;;;;;;2.80;2.60;;;18.30;40.00;;;;;;5075567;28;20677;-68
2022/01/17 10:23:43;;;;;;;2.95;2.67;;;18.30;40.00;;;;;;5076338;28;20229;-69
2022/01/17 10:26:26;;;;;;;3.47;2.80;;;18.30;40.00;;;;;;5075325;28;20275;-68
2022/01/17 10:29:29;;;;;;;3.20;2.47;;;18.30;39.90;;;;;;5075732;28;20298;-67
2022/01/17 10:34:54;;;;;;;2.90;2.60;;;18.30;39.90;;;;;;5075161;28;20190;-67
2022/01/17 10:37:23;;;;;;;2.95;2.75;;;18.40;40.00;;;;;;5075151;28;20564;-65
2022/01/17 10:39:54;;;;;;;2.65;2.45;;;18.40;40.00;;;;;;5075239;28;20312;-67
2022/01/17 10:42:32;;;;;;;2.80;2.60;;;18.40;40.00;;;;;;5093207;28;20676;-68
2022/01/17 10:45:03;;;;;;;2.95;2.75;;;18.40;39.90;;;;;;5074807;28;20612;-67
2022/01/17 10:47:30;;;;;;;2.67;2.47;;;18.40;39.90;;;;;;5074863;28;20220;-66
2022/01/17 10:49:58;;;;;;;2.70;2.50;;;18.40;40.00;;;;;;5074834;28;20221;-65
2022/01/17 10:52:44;;;;;;;2.50;2.30;;;18.40;39.80;;;;;;5075142;28;20202;-66
2022/01/17 10:55:13;;;;;;;2.40;2.30;;;18.40;39.70;;;;;;5093065;28;20182;-65
2022/01/17 10:57:42;;;;;;;2.47;2.28;;;18.40;39.60;;;;;;5092687;28;20198;-65
2022/01/17 11:00:11;;;;;;;2.40;2.20;;;18.40;39.60;;;;;;5074683;28;20670;-67
2022/01/17 11:02:39;;;;;;;2.75;2.55;;;18.40;39.40;;;;;;5076895;28;20694;-69
2022/01/17 11:05:07;;;;;;;2.92;2.55;;;18.40;39.40;;;;;;5078606;28;20553;-67
2022/01/17 11:07:40;;;;;;;3.00;2.80;;;18.40;39.20;;;;;;5078596;28;20210;-67
2022/01/17 11:10:10;;;;;;;3.15;2.85;;;18.50;39.40;;;;;;5078488;28;20190;-67
2022/01/17 11:12:37;;;;;;;3.05;2.78;;;18.50;39.30;;;;;;5078549;28;20225;-68
2022/01/17 11:15:06;;;;;;;2.60;2.40;;;18.50;39.20;;;;;;5078159;28;20185;-67
2022/01/17 11:17:36;;;;;;;3.13;2.92;;;18.50;39.30;;;;;;5096686;28;20190;-65
2022/01/17 11:20:06;;;;;;;3.58;3.28;;;18.50;39.30;;;;;;5078400;28;20256;-67
2022/01/17 11:22:35;;;;;;;3.35;3.10;;;18.50;39.30;;;;;;5096924;28;20183;-68
2022/01/17 11:25:03;;;;;;;2.90;2.70;;;18.50;39.90;;;;;;5078752;28;20294;-66
2022/01/17 11:27:30;;;;;;;2.97;2.70;;;18.50;39.20;;;;;;5078774;28;20232;-68
2022/01/17 11:29:57;;;;;;;3.35;3.08;;;18.50;39.20;;;;;;5078572;28;20214;-67
2022/01/17 11:32:26;;;;;;;2.97;2.78;;;18.50;39.20;;;;;;5078425;28;20198;-66
2022/01/17 11:34:53;;;;;;;3.20;3.00;;;18.50;39.00;;;;;;5077975;28;20724;-65
2022/01/17 11:37:21;;;;;;;3.05;2.70;;;18.60;39.20;;;;;;5096188;28;20236;-68
2022/01/17 11:39:49;;;;;;;3.17;2.97;;;18.60;39.10;;;;;;5078123;28;20225;-66
2022/01/17 11:42:30;;;;;;;2.47;2.28;;;18.60;39.20;;;;;;5078336;28;20194;-66
2022/01/17 11:44:57;;;;;;;2.97;2.78;;;18.60;39.00;;;;;;5078735;28;20658;-66
2022/01/17 11:47:47;;;;;;;3.08;2.83;;;18.60;39.10;;;;;;5096288;28;20576;-69
2022/01/17 11:50:36;;;;;;;3.13;2.83;;;18.60;38.90;;;;;;5096264;28;20235;-68
2022/01/17 11:53:37;;;;;;;2.95;2.75;;;18.60;39.00;;;;;;5078343;28;20190;-66
2022/01/17 11:56:04;;;;;;;2.90;2.70;;;18.60;39.10;;;;;;5078166;28;20201;-67
2022/01/17 11:58:32;;;;;;;2.70;2.50;;;18.60;39.20;;;;;;5096223;28;20206;-65
2022/01/17 12:01:10;;;;;;;2.30;2.15;;;18.60;39.40;;;;;;5078093;28;20240;-67
2022/01/17 12:03:41;;;;;;;2.92;2.72;;;18.50;39.60;;;;;;5078144;28;20198;-69
2022/01/17 12:06:26;;;;;;;2.70;2.50;;;18.50;39.70;;;;;;5078140;28;20674;-68
2022/01/17 12:09:18;;;;;;;3.00;2.80;;;18.50;39.80;;;;;;5096063;28;20214;-66
2022/01/17 12:11:44;;;;;;;2.70;2.50;;;18.50;40.00;;;;;;5078544;28;20198;-69
2022/01/17 12:14:22;;;;;;;2.60;2.33;;;18.50;40.10;;;;;;5095054;28;20196;-68
2022/01/17 12:16:49;;;;;;;2.40;2.30;;;18.40;40.00;;;;;;5078306;28;20677;-66
2022/01/17 12:19:18;;;;;;;2.53;2.40;;;18.50;40.10;;;;;;5078303;28;20218;-67
2022/01/17 12:21:51;;;;;;;2.75;2.55;;;18.40;40.00;;;;;;5079149;28;20212;-68
2022/01/17 12:24:38;;;;;;;2.78;2.53;;;18.40;40.00;;;;;;5078463;28;20203;-69
2022/01/17 12:27:22;;;;;;;2.60;2.40;;;18.40;40.10;;;;;;5078017;28;20218;-65
2022/01/17 12:29:52;;;;;;;2.13;2.03;;;18.40;40.00;;;;;;5075738;28;20225;-67
2022/01/17 12:32:48;;;;;;;2.30;2.10;;;18.40;40.00;;;;;;5077851;28;20673;-67
2022/01/17 12:35:26;;;;;;;2.65;2.45;;;18.50;40.10;;;;;;5071308;28;20202;-68
2022/01/17 12:37:54;;;;;;;2.65;2.45;;;18.50;40.10;;;;;;5077780;28;20514;-66
2022/01/17 12:40:22;;;;;;;2.50;2.40;;;18.50;40.10;;;;;;5095853;28;20307;-65
2022/01/17 12:42:58;;;;;;;2.70;2.50;;;18.50;40.10;;;;;;5077565;28;20671;-68
2022/01/17 12:45:26;;;;;;;2.40;2.20;;;18.60;40.10;;;;;;5077418;28;20210;-65
2022/01/17 12:47:53;;;;;;;2.60;2.40;;;18.50;39.70;;;;;;5077435;28;20210;-67
2022/01/17 12:50:26;;;;;;;2.40;2.20;;;18.60;39.80;;;;;;5078238;28;20198;-68
2022/01/17 12:52:53;;;;;;;2.40;2.20;;;18.60;39.50;;;;;;5077663;28;20194;-68
2022/01/17 12:55:20;;;;;;;2.38;2.20;;;18.60;39.50;;;;;;5077661;28;20233;-67
2022/01/17 12:57:47;;;;;;;2.10;2.00;;;18.60;39.40;;;;;;5077493;28;20202;-65
2022/01/17 13:00:19;;;;;;;2.30;2.10;;;18.60;39.30;;;;;;5077893;28;20244;-66
2022/01/17 13:02:47;;;;;;;2.15;2.05;;;18.70;39.20;;;;;;5095545;28;20281;-66
2022/01/17 13:05:15;;;;;;;2.13;2.03;;;18.70;39.10;;;;;;5077610;28;20281;-68
2022/01/17 13:07:44;;;;;;;2.38;2.20;;;18.70;39.10;;;;;;5078021;28;20213;-67